^^
Station Historical Data
 
Daily Summary for November 18, 2019 Units:  Metric    English   Both
« Previous Day
Next Day »
Daily Weekly Monthly Yearly Custom
  Current: High: Low: Average:
Temperature: 11.8 °C 15.1 °C 11.7 °C 13.6 °C
Dew Point: 9.2 °C 12.3 °C 9.2 °C 10.1 °C
Humidity: 84% 90% 69% 80%
Wind Speed: 0.0km/h 14.5km/h 0.0km/h 3.4km/h
Wind Gust: 1.6km/h 22.5km/h - -
WindCalm - - WSW
Pressure: 1011.6 hPa 1011.6 hPa 1008.2 hPa -
Precipitation: 1.8 mm      
Historical Graphs
 
 
Tabular Data for November 18, 2019
Time Temperature Dew Point Pressure Wind Wind Speed Wind Gust Humidity Rainfall Rate (Hourly) Conditions
00:00 13.9 °C 12.3 °C 1008.8 hPa NW 3.2 km/h 8.0 km/h 90% 2.8 mm RA
00:05 13.6 °C 12.0 °C 1008.7 hPa North 1.6 km/h 9.7 km/h 90% 4.3 mm RA
00:10 13.6 °C 11.9 °C 1008.7 hPa Calm   4.8 km/h 90% 4.3 mm OVC
00:15 13.5 °C 11.9 °C 1008.6 hPa ESE 1.6 km/h 6.4 km/h 90% 4.6 mm RA
00:20 13.4 °C 11.8 °C 1008.5 hPa Calm   6.4 km/h 90% 4.6 mm OVC
00:25 13.4 °C 11.8 °C 1008.4 hPa Calm   6.4 km/h 90% 4.6 mm OVC
00:30 13.5 °C 11.7 °C 1008.2 hPa NE 1.6 km/h 8.0 km/h 89% 4.6 mm OVC
00:35 13.6 °C 11.6 °C 1008.2 hPa NE 1.6 km/h 6.4 km/h 88% 4.6 mm OVC
00:40 13.7 °C 11.8 °C 1008.3 hPa NE 1.6 km/h 4.8 km/h 88% 4.6 mm OVC
00:45 13.7 °C 11.8 °C 1008.3 hPa NE 1.6 km/h 8.0 km/h 88% 4.6 mm OVC
00:50 13.7 °C 11.6 °C 1008.4 hPa NNE 1.6 km/h 6.4 km/h 87% 4.3 mm OVC
00:55 13.3 °C 11.1 °C 1008.7 hPa Calm   9.7 km/h 86% 4.1 mm OVC
01:00 13.3 °C 10.9 °C 1008.7 hPa North 1.6 km/h 4.8 km/h 85% 1.8 mm OVC
01:05 13.4 °C 10.7 °C 1008.8 hPa North 1.6 km/h 6.4 km/h 84% 0.3 mm OVC
01:10 13.4 °C 10.7 °C 1008.9 hPa Calm   1.6 km/h 84% 0.3 mm OVC
01:15 13.3 °C 10.7 °C 1008.8 hPa Calm     84% 0.0 mm OVC
01:20 13.3 °C 10.6 °C 1008.9 hPa Calm   1.6 km/h 84% 0.0 mm OVC
01:25 13.3 °C 10.4 °C 1009.0 hPa Calm   1.6 km/h 83% 0.0 mm OVC
01:30 13.3 °C 10.4 °C 1009.0 hPa Calm   4.8 km/h 83% 0.0 mm OVC
01:35 13.4 °C 10.4 °C 1009.2 hPa West 4.8 km/h 11.3 km/h 82% 0.0 mm OVC
01:40 13.7 °C 10.5 °C 1009.1 hPa West 3.2 km/h 6.4 km/h 81% 0.0 mm OVC
01:45 14.0 °C 10.6 °C 1009.1 hPa West 3.2 km/h 6.4 km/h 80% 0.0 mm OVC
01:50 14.3 °C 10.7 °C 1009.1 hPa West 4.8 km/h 11.3 km/h 79% 0.0 mm OVC
01:55 14.3 °C 10.7 °C 1009.2 hPa West 3.2 km/h 6.4 km/h 79% 0.0 mm OVC
02:00 14.3 °C 10.7 °C 1009.2 hPa West 4.8 km/h 12.9 km/h 79% 0.0 mm OVC
02:05 14.3 °C 10.1 °C 1009.2 hPa West 4.8 km/h 19.3 km/h 76% 0.0 mm OVC
02:10 14.4 °C 10.4 °C 1009.2 hPa West 9.7 km/h 16.1 km/h 77% 0.0 mm OVC
02:15 14.5 °C 10.3 °C 1009.3 hPa WNW 9.7 km/h 19.3 km/h 76% 0.0 mm OVC
02:20 14.6 °C 10.0 °C 1009.3 hPa West 12.9 km/h 19.3 km/h 74% 0.0 mm OVC
02:25 14.7 °C 9.9 °C 1009.3 hPa WNW 14.5 km/h 20.9 km/h 73% 0.0 mm OVC
02:30 14.7 °C 9.9 °C 1009.3 hPa West 11.3 km/h 19.3 km/h 73% 0.0 mm OVC
02:35 14.8 °C 9.8 °C 1009.4 hPa West 12.9 km/h 19.3 km/h 72% 0.0 mm OVC
02:40 14.8 °C 9.6 °C 1009.5 hPa West 11.3 km/h 16.1 km/h 71% 0.0 mm OVC
02:45 15.0 °C 10.0 °C 1009.5 hPa West 12.9 km/h 22.5 km/h 72% 0.0 mm OVC
02:50 15.0 °C 9.6 °C 1009.5 hPa West 11.3 km/h 22.5 km/h 70% 0.0 mm OVC
02:55 15.0 °C 9.6 °C 1009.5 hPa West 11.3 km/h 19.3 km/h 70% 0.0 mm OVC
03:00 15.1 °C 9.4 °C 1009.6 hPa West 9.7 km/h 20.9 km/h 69% 0.0 mm OVC
03:05 15.0 °C 9.6 °C 1009.6 hPa NW 4.8 km/h 19.3 km/h 70% 0.0 mm OVC
03:10 14.8 °C 9.6 °C 1009.7 hPa Calm   4.8 km/h 71% 0.0 mm OVC
03:15 14.4 °C 9.6 °C 1009.7 hPa WNW 1.6 km/h 4.8 km/h 73% 0.0 mm OVC
03:20 14.2 °C 9.8 °C 1009.6 hPa West 1.6 km/h 6.4 km/h 75% 0.0 mm OVC
03:25 14.2 °C 9.8 °C 1009.7 hPa West 8.0 km/h 14.5 km/h 75% 0.0 mm OVC
03:30 14.4 °C 10.1 °C 1009.7 hPa West 4.8 km/h 14.5 km/h 75% 0.0 mm OVC
03:35 14.6 °C 10.0 °C 1009.7 hPa WNW 9.7 km/h 19.3 km/h 74% 0.0 mm OVC
03:40 14.3 °C 9.8 °C 1009.7 hPa NW 3.2 km/h 8.0 km/h 74% 0.0 mm OVC
03:45 14.1 °C 9.7 °C 1009.7 hPa NNW 1.6 km/h 9.7 km/h 75% 0.0 mm OVC
03:50 14.1 °C 9.7 °C 1009.7 hPa NNW 8.0 km/h 14.5 km/h 75% 0.0 mm OVC
03:55 14.2 °C 9.8 °C 1009.8 hPa NW 3.2 km/h 8.0 km/h 75% 0.0 mm OVC
04:00 14.2 °C 9.8 °C 1009.9 hPa NW 1.6 km/h 6.4 km/h 75% 0.0 mm OVC
04:05 14.2 °C 9.8 °C 1010.0 hPa NW 3.2 km/h 9.7 km/h 75% 0.0 mm OVC
04:10 14.3 °C 9.9 °C 1010.0 hPa WNW 8.0 km/h 12.9 km/h 75% 0.0 mm OVC
04:15 14.4 °C 10.0 °C 1010.2 hPa Calm   6.4 km/h 75% 0.0 mm OVC
04:20 14.4 °C 10.0 °C 1010.1 hPa West 4.8 km/h 9.7 km/h 75% 0.0 mm OVC
04:25 14.4 °C 10.1 °C 1010.1 hPa West 8.0 km/h 14.5 km/h 75% 0.0 mm OVC
04:30 14.8 °C 10.1 °C 1010.2 hPa West 8.0 km/h 19.3 km/h 73% 0.0 mm OVC
04:35 14.7 °C 9.9 °C 1010.3 hPa WSW 1.6 km/h 16.1 km/h 73% 0.0 mm OVC
04:40 13.7 °C 9.6 °C 1010.3 hPa NNW 1.6 km/h 6.4 km/h 76% 0.0 mm OVC
04:45 13.3 °C 9.6 °C 1010.3 hPa Calm   4.8 km/h 78% 0.0 mm OVC
04:50 13.3 °C 9.7 °C 1010.3 hPa Calm   8.0 km/h 79% 0.0 mm OVC
04:55 13.2 °C 9.7 °C 1010.3 hPa NW 1.6 km/h 4.8 km/h 79% 0.0 mm OVC
05:00 13.2 °C 9.7 °C 1010.3 hPa Calm     79% 0.0 mm OVC
05:05 12.9 °C 9.4 °C 1010.4 hPa NW 1.6 km/h 4.8 km/h 79% 0.0 mm OVC
05:10 12.8 °C 9.4 °C 1010.5 hPa Calm   3.2 km/h 80% 0.0 mm OVC
05:15 12.7 °C 9.5 °C 1010.5 hPa NNE 1.6 km/h 4.8 km/h 81% 0.0 mm OVC
05:20 12.4 °C 9.2 °C 1010.6 hPa Calm   3.2 km/h 81% 0.0 mm OVC
05:25 12.2 °C 9.2 °C 1010.7 hPa Calm     82% 0.0 mm OVC
05:30 12.2 °C 9.4 °C 1010.7 hPa ESE 1.6 km/h 3.2 km/h 83% 0.0 mm OVC
05:35 12.4 °C 9.6 °C 1010.8 hPa Calm   4.8 km/h 83% 0.0 mm OVC
05:40 12.4 °C 9.6 °C 1010.9 hPa Calm   1.6 km/h 83% 0.0 mm OVC
05:45 12.4 °C 9.6 °C 1011.1 hPa NNE 1.6 km/h 6.4 km/h 83% 0.0 mm OVC
05:50 12.1 °C 9.3 °C 1011.2 hPa ENE 3.2 km/h 6.4 km/h 83% 0.0 mm OVC
05:55 11.9 °C 9.2 °C 1011.2 hPa Calm   6.4 km/h 83% 0.0 mm OVC
06:00 11.9 °C 9.3 °C 1011.4 hPa Calm   1.6 km/h 84% 0.0 mm OVC
06:05 11.9 °C 9.3 °C 1011.4 hPa ENE 1.6 km/h 6.4 km/h 84% 0.0 mm OVC
06:10 11.9 °C 9.4 °C 1011.5 hPa Calm   4.8 km/h 85% 0.0 mm OVC
06:15 11.8 °C 9.3 °C 1011.5 hPa Calm   4.8 km/h 85% 0.0 mm OVC
06:20 11.7 °C 9.3 °C 1011.6 hPa Calm   6.4 km/h 85% 0.0 mm OVC
06:25 11.7 °C 9.3 °C 1011.6 hPa Calm   4.8 km/h 85% 0.0 mm OVC
06:30 11.8 °C 9.3 °C 1011.6 hPa Calm   1.6 km/h 85% 0.0 mm OVC
06:35 11.8 °C 9.2 °C 1011.6 hPa Calm   1.6 km/h 84% 0.0 mm OVC